sensor_id;sensor_type;location;lat;lon;timestamp;P1;durP1;ratioP1;P2;durP2;ratioP2
49578;SDS011;35483;50.828;3.228;2022-07-01T00:02:22;7.40;;;5.15;;
49578;SDS011;35483;50.828;3.228;2022-07-01T00:04:48;8.05;;;5.68;;
49578;SDS011;35483;50.828;3.228;2022-07-01T00:07:14;8.10;;;4.53;;
49578;SDS011;35483;50.828;3.228;2022-07-01T00:09:41;6.10;;;4.47;;
49578;SDS011;35483;50.828;3.228;2022-07-01T00:12:08;4.32;;;3.90;;
49578;SDS011;35483;50.828;3.228;2022-07-01T00:14:34;5.57;;;4.53;;
49578;SDS011;35483;50.828;3.228;2022-07-01T00:17:01;5.13;;;4.38;;
49578;SDS011;35483;50.828;3.228;2022-07-01T00:19:27;5.35;;;4.32;;
49578;SDS011;35483;50.828;3.228;2022-07-01T00:21:53;8.07;;;4.00;;
49578;SDS011;35483;50.828;3.228;2022-07-01T00:24:19;5.55;;;3.88;;
49578;SDS011;35483;50.828;3.228;2022-07-01T00:26:45;8.50;;;4.15;;
49578;SDS011;35483;50.828;3.228;2022-07-01T00:29:11;5.32;;;3.78;;
49578;SDS011;35483;50.828;3.228;2022-07-01T00:31:37;7.13;;;3.83;;
49578;SDS011;35483;50.828;3.228;2022-07-01T00:34:03;7.80;;;4.45;;
49578;SDS011;35483;50.828;3.228;2022-07-01T00:36:29;7.55;;;4.05;;
49578;SDS011;35483;50.828;3.228;2022-07-01T00:38:55;6.95;;;4.10;;
49578;SDS011;35483;50.828;3.228;2022-07-01T00:41:22;7.95;;;4.05;;
49578;SDS011;35483;50.828;3.228;2022-07-01T00:43:48;9.00;;;4.60;;
49578;SDS011;35483;50.828;3.228;2022-07-01T00:46:14;7.43;;;4.70;;
49578;SDS011;35483;50.828;3.228;2022-07-01T00:48:40;6.15;;;4.35;;
49578;SDS011;35483;50.828;3.228;2022-07-01T00:51:07;5.78;;;3.97;;
49578;SDS011;35483;50.828;3.228;2022-07-01T00:53:33;5.72;;;4.30;;
49578;SDS011;35483;50.828;3.228;2022-07-01T00:55:59;8.93;;;4.90;;
49578;SDS011;35483;50.828;3.228;2022-07-01T00:58:26;7.15;;;4.43;;
49578;SDS011;35483;50.828;3.228;2022-07-01T01:00:54;7.75;;;4.38;;
49578;SDS011;35483;50.828;3.228;2022-07-01T01:03:20;8.35;;;4.53;;
49578;SDS011;35483;50.828;3.228;2022-07-01T01:05:46;6.97;;;4.90;;
49578;SDS011;35483;50.828;3.228;2022-07-01T01:08:14;6.40;;;4.63;;
49578;SDS011;35483;50.828;3.228;2022-07-01T01:10:40;7.60;;;4.55;;
49578;SDS011;35483;50.828;3.228;2022-07-01T01:13:08;9.48;;;5.15;;
49578;SDS011;35483;50.828;3.228;2022-07-01T01:15:35;10.00;;;5.07;;
49578;SDS011;35483;50.828;3.228;2022-07-01T01:18:02;6.35;;;4.90;;
49578;SDS011;35483;50.828;3.228;2022-07-01T01:20:35;7.90;;;5.10;;
49578;SDS011;35483;50.828;3.228;2022-07-01T01:23:01;7.93;;;5.30;;
49578;SDS011;35483;50.828;3.228;2022-07-01T01:25:29;7.88;;;5.05;;
49578;SDS011;35483;50.828;3.228;2022-07-01T01:27:59;8.93;;;5.30;;
49578;SDS011;35483;50.828;3.228;2022-07-01T01:30:26;7.57;;;5.05;;
49578;SDS011;35483;50.828;3.228;2022-07-01T01:32:52;10.25;;;5.60;;
49578;SDS011;35483;50.828;3.228;2022-07-01T01:35:18;12.23;;;5.32;;
49578;SDS011;35483;50.828;3.228;2022-07-01T01:37:45;7.68;;;5.28;;
49578;SDS011;35483;50.828;3.228;2022-07-01T01:40:11;7.60;;;4.85;;
49578;SDS011;35483;50.828;3.228;2022-07-01T01:42:39;7.03;;;4.85;;
49578;SDS011;35483;50.828;3.228;2022-07-01T01:45:06;5.55;;;4.80;;
49578;SDS011;35483;50.828;3.228;2022-07-01T01:47:32;8.93;;;5.18;;
49578;SDS011;35483;50.828;3.228;2022-07-01T01:49:58;5.47;;;4.40;;
49578;SDS011;35483;50.828;3.228;2022-07-01T01:52:24;5.57;;;4.57;;
49578;SDS011;35483;50.828;3.228;2022-07-01T01:54:49;6.25;;;4.47;;
49578;SDS011;35483;50.828;3.228;2022-07-01T01:57:15;7.28;;;5.03;;
49578;SDS011;35483;50.828;3.228;2022-07-01T01:59:41;5.05;;;4.15;;
49578;SDS011;35483;50.828;3.228;2022-07-01T02:02:07;7.18;;;4.45;;
49578;SDS011;35483;50.828;3.228;2022-07-01T02:04:33;8.82;;;4.57;;
49578;SDS011;35483;50.828;3.228;2022-07-01T02:07:00;8.43;;;4.63;;
49578;SDS011;35483;50.828;3.228;2022-07-01T02:09:26;6.93;;;4.22;;
49578;SDS011;35483;50.828;3.228;2022-07-01T02:11:54;6.07;;;4.53;;
49578;SDS011;35483;50.828;3.228;2022-07-01T02:14:20;8.73;;;4.30;;
49578;SDS011;35483;50.828;3.228;2022-07-01T02:16:45;6.47;;;4.47;;
49578;SDS011;35483;50.828;3.228;2022-07-01T02:19:11;8.38;;;4.00;;
49578;SDS011;35483;50.828;3.228;2022-07-01T02:21:37;10.52;;;4.50;;
49578;SDS011;35483;50.828;3.228;2022-07-01T02:24:03;4.90;;;3.88;;
49578;SDS011;35483;50.828;3.228;2022-07-01T02:26:28;6.38;;;3.80;;
49578;SDS011;35483;50.828;3.228;2022-07-01T02:28:54;6.55;;;4.07;;
49578;SDS011;35483;50.828;3.228;2022-07-01T02:31:20;6.88;;;4.18;;
49578;SDS011;35483;50.828;3.228;2022-07-01T02:33:45;5.68;;;4.18;;
49578;SDS011;35483;50.828;3.228;2022-07-01T02:36:12;8.38;;;4.20;;
49578;SDS011;35483;50.828;3.228;2022-07-01T02:38:37;5.88;;;4.00;;
49578;SDS011;35483;50.828;3.228;2022-07-01T02:41:03;7.18;;;4.55;;
49578;SDS011;35483;50.828;3.228;2022-07-01T02:43:29;5.55;;;4.82;;
49578;SDS011;35483;50.828;3.228;2022-07-01T02:45:55;9.55;;;4.28;;
49578;SDS011;35483;50.828;3.228;2022-07-01T02:48:24;7.50;;;4.03;;
49578;SDS011;35483;50.828;3.228;2022-07-01T02:50:50;5.57;;;4.05;;
49578;SDS011;35483;50.828;3.228;2022-07-01T02:53:15;8.60;;;4.57;;
49578;SDS011;35483;50.828;3.228;2022-07-01T02:55:41;7.95;;;4.25;;
49578;SDS011;35483;50.828;3.228;2022-07-01T02:58:07;7.72;;;3.95;;
49578;SDS011;35483;50.828;3.228;2022-07-01T03:00:32;7.28;;;4.13;;
49578;SDS011;35483;50.828;3.228;2022-07-01T03:02:58;5.65;;;3.70;;
49578;SDS011;35483;50.828;3.228;2022-07-01T03:05:24;7.70;;;4.70;;
49578;SDS011;35483;50.828;3.228;2022-07-01T03:07:49;6.88;;;3.97;;
49578;SDS011;35483;50.828;3.228;2022-07-01T03:10:15;6.40;;;3.78;;
49578;SDS011;35483;50.828;3.228;2022-07-01T03:12:41;7.18;;;3.75;;
49578;SDS011;35483;50.828;3.228;2022-07-01T03:15:13;6.05;;;3.88;;
49578;SDS011;35483;50.828;3.228;2022-07-01T03:17:44;5.93;;;3.58;;
49578;SDS011;35483;50.828;3.228;2022-07-01T03:20:11;8.23;;;3.95;;
49578;SDS011;35483;50.828;3.228;2022-07-01T03:22:38;8.90;;;4.20;;
49578;SDS011;35483;50.828;3.228;2022-07-01T03:25:05;6.82;;;3.97;;
49578;SDS011;35483;50.828;3.228;2022-07-01T03:27:32;8.95;;;4.43;;
49578;SDS011;35483;50.828;3.228;2022-07-01T03:29:58;7.53;;;4.30;;
49578;SDS011;35483;50.828;3.228;2022-07-01T03:32:25;7.45;;;4.70;;
49578;SDS011;35483;50.828;3.228;2022-07-01T03:34:51;10.95;;;4.95;;
49578;SDS011;35483;50.828;3.228;2022-07-01T03:37:18;8.02;;;4.18;;
49578;SDS011;35483;50.828;3.228;2022-07-01T03:39:45;8.15;;;5.15;;
49578;SDS011;35483;50.828;3.228;2022-07-01T03:42:11;9.55;;;4.47;;
49578;SDS011;35483;50.828;3.228;2022-07-01T03:44:37;5.97;;;3.88;;
49578;SDS011;35483;50.828;3.228;2022-07-01T03:47:04;8.23;;;3.72;;
49578;SDS011;35483;50.828;3.228;2022-07-01T03:49:31;4.90;;;4.00;;
49578;SDS011;35483;50.828;3.228;2022-07-01T03:51:57;7.93;;;3.70;;
49578;SDS011;35483;50.828;3.228;2022-07-01T03:54:23;5.97;;;3.70;;
49578;SDS011;35483;50.828;3.228;2022-07-01T03:57:02;6.60;;;3.83;;
49578;SDS011;35483;50.828;3.228;2022-07-01T03:59:34;6.07;;;3.42;;
49578;SDS011;35483;50.828;3.228;2022-07-01T04:02:03;6.05;;;3.85;;
49578;SDS011;35483;50.828;3.228;2022-07-01T04:04:30;8.00;;;3.47;;
49578;SDS011;35483;50.828;3.228;2022-07-01T04:06:57;4.68;;;3.83;;
49578;SDS011;35483;50.828;3.228;2022-07-01T04:09:24;5.50;;;3.40;;
49578;SDS011;35483;50.828;3.228;2022-07-01T04:11:52;5.75;;;3.25;;
49578;SDS011;35483;50.828;3.228;2022-07-01T04:14:18;7.38;;;3.28;;
49578;SDS011;35483;50.828;3.228;2022-07-01T04:16:44;6.18;;;3.40;;
49578;SDS011;35483;50.828;3.228;2022-07-01T04:19:10;5.63;;;3.50;;
49578;SDS011;35483;50.828;3.228;2022-07-01T04:21:37;7.63;;;4.00;;
49578;SDS011;35483;50.828;3.228;2022-07-01T04:24:21;8.52;;;3.83;;
49578;SDS011;35483;50.828;3.228;2022-07-01T04:26:49;7.20;;;4.28;;
49578;SDS011;35483;50.828;3.228;2022-07-01T04:29:15;9.05;;;4.22;;
49578;SDS011;35483;50.828;3.228;2022-07-01T04:31:41;6.13;;;4.55;;
49578;SDS011;35483;50.828;3.228;2022-07-01T04:34:07;10.15;;;4.93;;
49578;SDS011;35483;50.828;3.228;2022-07-01T04:36:34;7.75;;;4.97;;
49578;SDS011;35483;50.828;3.228;2022-07-01T04:39:00;7.97;;;4.22;;
49578;SDS011;35483;50.828;3.228;2022-07-01T04:41:27;8.55;;;4.38;;
49578;SDS011;35483;50.828;3.228;2022-07-01T04:44:13;8.18;;;4.25;;
49578;SDS011;35483;50.828;3.228;2022-07-01T04:46:38;6.97;;;4.10;;
49578;SDS011;35483;50.828;3.228;2022-07-01T04:49:04;6.97;;;4.20;;
49578;SDS011;35483;50.828;3.228;2022-07-01T04:51:30;8.73;;;4.03;;
49578;SDS011;35483;50.828;3.228;2022-07-01T04:53:59;7.05;;;3.83;;
49578;SDS011;35483;50.828;3.228;2022-07-01T04:56:25;6.88;;;4.05;;
49578;SDS011;35483;50.828;3.228;2022-07-01T04:58:51;7.82;;;4.22;;
49578;SDS011;35483;50.828;3.228;2022-07-01T05:01:17;15.25;;;4.50;;
49578;SDS011;35483;50.828;3.228;2022-07-01T05:03:43;8.45;;;3.83;;
49578;SDS011;35483;50.828;3.228;2022-07-01T05:06:09;7.55;;;3.88;;
49578;SDS011;35483;50.828;3.228;2022-07-01T05:08:34;5.95;;;3.13;;
49578;SDS011;35483;50.828;3.228;2022-07-01T05:11:01;5.97;;;2.63;;
49578;SDS011;35483;50.828;3.228;2022-07-01T05:13:26;4.82;;;2.53;;
49578;SDS011;35483;50.828;3.228;2022-07-01T05:15:52;5.93;;;3.00;;
49578;SDS011;35483;50.828;3.228;2022-07-01T05:18:18;6.32;;;2.88;;
49578;SDS011;35483;50.828;3.228;2022-07-01T05:21:02;4.05;;;2.40;;
49578;SDS011;35483;50.828;3.228;2022-07-01T05:23:46;7.13;;;2.58;;
49578;SDS011;35483;50.828;3.228;2022-07-01T05:26:12;6.43;;;2.80;;
49578;SDS011;35483;50.828;3.228;2022-07-01T05:28:41;4.88;;;2.95;;
49578;SDS011;35483;50.828;3.228;2022-07-01T05:31:08;5.40;;;2.90;;
49578;SDS011;35483;50.828;3.228;2022-07-01T05:33:33;4.47;;;2.92;;
49578;SDS011;35483;50.828;3.228;2022-07-01T05:35:59;3.90;;;2.30;;
49578;SDS011;35483;50.828;3.228;2022-07-01T05:38:26;5.80;;;2.50;;
49578;SDS011;35483;50.828;3.228;2022-07-01T05:40:52;8.52;;;2.50;;
49578;SDS011;35483;50.828;3.228;2022-07-01T05:43:18;9.25;;;2.83;;
49578;SDS011;35483;50.828;3.228;2022-07-01T05:45:47;6.35;;;2.15;;
49578;SDS011;35483;50.828;3.228;2022-07-01T05:48:13;4.35;;;2.15;;
49578;SDS011;35483;50.828;3.228;2022-07-01T05:50:40;4.28;;;2.25;;
49578;SDS011;35483;50.828;3.228;2022-07-01T05:53:07;7.38;;;2.45;;
49578;SDS011;35483;50.828;3.228;2022-07-01T05:55:33;4.03;;;2.30;;
49578;SDS011;35483;50.828;3.228;2022-07-01T05:58:00;5.70;;;2.50;;
49578;SDS011;35483;50.828;3.228;2022-07-01T06:00:27;4.43;;;1.73;;
49578;SDS011;35483;50.828;3.228;2022-07-01T06:02:54;4.95;;;2.20;;
49578;SDS011;35483;50.828;3.228;2022-07-01T06:05:21;6.13;;;1.90;;
49578;SDS011;35483;50.828;3.228;2022-07-01T06:07:49;4.07;;;2.22;;
49578;SDS011;35483;50.828;3.228;2022-07-01T06:10:15;4.55;;;1.70;;
49578;SDS011;35483;50.828;3.228;2022-07-01T06:12:42;4.70;;;1.63;;
49578;SDS011;35483;50.828;3.228;2022-07-01T06:15:09;4.47;;;1.88;;
49578;SDS011;35483;50.828;3.228;2022-07-01T06:17:37;4.88;;;1.83;;
49578;SDS011;35483;50.828;3.228;2022-07-01T06:20:04;4.00;;;1.60;;
49578;SDS011;35483;50.828;3.228;2022-07-01T06:22:30;7.28;;;1.92;;
49578;SDS011;35483;50.828;3.228;2022-07-01T06:24:57;5.60;;;2.22;;
49578;SDS011;35483;50.828;3.228;2022-07-01T06:27:24;4.20;;;1.85;;
49578;SDS011;35483;50.828;3.228;2022-07-01T06:29:51;3.55;;;2.00;;
49578;SDS011;35483;50.828;3.228;2022-07-01T06:32:18;6.00;;;2.10;;
49578;SDS011;35483;50.828;3.228;2022-07-01T06:34:45;5.72;;;2.08;;
49578;SDS011;35483;50.828;3.228;2022-07-01T06:37:11;5.45;;;1.63;;
49578;SDS011;35483;50.828;3.228;2022-07-01T06:39:38;5.28;;;1.50;;
49578;SDS011;35483;50.828;3.228;2022-07-01T06:42:04;4.78;;;1.60;;
49578;SDS011;35483;50.828;3.228;2022-07-01T06:44:30;5.70;;;2.15;;
49578;SDS011;35483;50.828;3.228;2022-07-01T06:46:56;6.00;;;1.73;;
49578;SDS011;35483;50.828;3.228;2022-07-01T06:49:21;5.80;;;1.67;;
49578;SDS011;35483;50.828;3.228;2022-07-01T06:51:47;3.90;;;1.67;;
49578;SDS011;35483;50.828;3.228;2022-07-01T06:54:14;3.20;;;1.45;;
49578;SDS011;35483;50.828;3.228;2022-07-01T06:56:42;4.15;;;1.38;;
49578;SDS011;35483;50.828;3.228;2022-07-01T06:59:08;3.28;;;1.67;;
49578;SDS011;35483;50.828;3.228;2022-07-01T07:01:35;2.63;;;1.45;;
49578;SDS011;35483;50.828;3.228;2022-07-01T07:04:01;4.03;;;1.40;;
49578;SDS011;35483;50.828;3.228;2022-07-01T07:06:26;3.88;;;1.63;;
49578;SDS011;35483;50.828;3.228;2022-07-01T07:08:53;3.72;;;1.60;;
49578;SDS011;35483;50.828;3.228;2022-07-01T07:11:18;3.08;;;1.52;;
49578;SDS011;35483;50.828;3.228;2022-07-01T07:13:45;5.13;;;1.42;;
49578;SDS011;35483;50.828;3.228;2022-07-01T07:16:11;3.28;;;1.55;;
49578;SDS011;35483;50.828;3.228;2022-07-01T07:18:36;2.30;;;1.10;;
49578;SDS011;35483;50.828;3.228;2022-07-01T07:21:02;3.60;;;1.33;;
49578;SDS011;35483;50.828;3.228;2022-07-01T07:23:28;4.10;;;1.58;;
49578;SDS011;35483;50.828;3.228;2022-07-01T07:25:54;2.85;;;1.48;;
49578;SDS011;35483;50.828;3.228;2022-07-01T07:28:20;4.30;;;1.30;;
49578;SDS011;35483;50.828;3.228;2022-07-01T07:30:46;5.07;;;1.42;;
49578;SDS011;35483;50.828;3.228;2022-07-01T07:33:11;2.85;;;1.30;;
49578;SDS011;35483;50.828;3.228;2022-07-01T07:35:37;2.60;;;1.10;;
49578;SDS011;35483;50.828;3.228;2022-07-01T07:38:03;3.55;;;1.25;;
49578;SDS011;35483;50.828;3.228;2022-07-01T07:40:28;2.58;;;1.05;;
49578;SDS011;35483;50.828;3.228;2022-07-01T07:42:54;3.25;;;1.30;;
49578;SDS011;35483;50.828;3.228;2022-07-01T07:45:20;3.45;;;1.33;;
49578;SDS011;35483;50.828;3.228;2022-07-01T07:47:47;3.85;;;1.33;;
49578;SDS011;35483;50.828;3.228;2022-07-01T07:50:14;2.60;;;1.27;;
49578;SDS011;35483;50.828;3.228;2022-07-01T07:52:40;3.80;;;1.33;;
49578;SDS011;35483;50.828;3.228;2022-07-01T07:55:07;3.92;;;1.30;;
49578;SDS011;35483;50.828;3.228;2022-07-01T07:57:38;4.38;;;1.50;;
49578;SDS011;35483;50.828;3.228;2022-07-01T08:00:05;2.85;;;1.35;;
49578;SDS011;35483;50.828;3.228;2022-07-01T08:02:32;4.10;;;1.10;;
49578;SDS011;35483;50.828;3.228;2022-07-01T08:04:58;2.13;;;1.40;;
49578;SDS011;35483;50.828;3.228;2022-07-01T08:07:24;5.00;;;1.30;;
49578;SDS011;35483;50.828;3.228;2022-07-01T08:09:50;3.65;;;1.52;;
49578;SDS011;35483;50.828;3.228;2022-07-01T08:12:16;2.63;;;1.38;;
49578;SDS011;35483;50.828;3.228;2022-07-01T08:14:43;2.95;;;1.40;;
49578;SDS011;35483;50.828;3.228;2022-07-01T08:17:09;4.97;;;1.40;;
49578;SDS011;35483;50.828;3.228;2022-07-01T08:19:34;4.20;;;1.25;;
49578;SDS011;35483;50.828;3.228;2022-07-01T08:22:00;2.53;;;1.33;;
49578;SDS011;35483;50.828;3.228;2022-07-01T08:24:26;3.00;;;1.10;;
49578;SDS011;35483;50.828;3.228;2022-07-01T08:26:52;2.78;;;1.20;;
49578;SDS011;35483;50.828;3.228;2022-07-01T08:29:18;4.68;;;1.20;;
49578;SDS011;35483;50.828;3.228;2022-07-01T08:31:44;2.80;;;1.20;;
49578;SDS011;35483;50.828;3.228;2022-07-01T08:34:09;3.40;;;1.52;;
49578;SDS011;35483;50.828;3.228;2022-07-01T08:36:35;2.95;;;1.20;;
49578;SDS011;35483;50.828;3.228;2022-07-01T08:39:01;4.13;;;1.38;;
49578;SDS011;35483;50.828;3.228;2022-07-01T08:41:28;2.10;;;1.13;;
49578;SDS011;35483;50.828;3.228;2022-07-01T08:43:53;3.15;;;1.02;;
49578;SDS011;35483;50.828;3.228;2022-07-01T08:46:19;2.70;;;1.20;;
49578;SDS011;35483;50.828;3.228;2022-07-01T08:48:47;3.50;;;1.50;;
49578;SDS011;35483;50.828;3.228;2022-07-01T08:51:12;3.05;;;1.10;;
49578;SDS011;35483;50.828;3.228;2022-07-01T08:53:38;5.22;;;1.33;;
49578;SDS011;35483;50.828;3.228;2022-07-01T08:56:04;3.97;;;1.33;;
49578;SDS011;35483;50.828;3.228;2022-07-01T08:58:49;3.50;;;1.03;;
49578;SDS011;35483;50.828;3.228;2022-07-01T09:01:16;3.10;;;1.35;;
49578;SDS011;35483;50.828;3.228;2022-07-01T09:03:42;3.05;;;0.82;;
49578;SDS011;35483;50.828;3.228;2022-07-01T09:06:16;3.20;;;1.13;;
49578;SDS011;35483;50.828;3.228;2022-07-01T09:08:50;3.13;;;1.00;;
49578;SDS011;35483;50.828;3.228;2022-07-01T09:11:18;4.00;;;1.38;;
49578;SDS011;35483;50.828;3.228;2022-07-01T09:13:44;5.35;;;1.25;;
49578;SDS011;35483;50.828;3.228;2022-07-01T09:16:14;2.70;;;0.90;;
49578;SDS011;35483;50.828;3.228;2022-07-01T09:19:02;3.08;;;1.23;;
49578;SDS011;35483;50.828;3.228;2022-07-01T09:21:31;2.72;;;1.20;;
49578;SDS011;35483;50.828;3.228;2022-07-01T09:27:06;1.95;;;1.10;;
49578;SDS011;35483;50.828;3.228;2022-07-01T09:29:51;3.67;;;1.23;;
49578;SDS011;35483;50.828;3.228;2022-07-01T09:32:19;2.30;;;1.25;;
49578;SDS011;35483;50.828;3.228;2022-07-01T09:34:47;10.07;;;1.52;;
49578;SDS011;35483;50.828;3.228;2022-07-01T09:37:20;2.50;;;1.27;;
49578;SDS011;35483;50.828;3.228;2022-07-01T09:39:48;2.22;;;1.10;;
49578;SDS011;35483;50.828;3.228;2022-07-01T09:42:19;2.20;;;1.23;;
49578;SDS011;35483;50.828;3.228;2022-07-01T09:44:52;2.53;;;1.30;;
49578;SDS011;35483;50.828;3.228;2022-07-01T09:47:18;2.08;;;1.00;;
49578;SDS011;35483;50.828;3.228;2022-07-01T09:49:51;2.03;;;0.98;;
49578;SDS011;35483;50.828;3.228;2022-07-01T09:52:17;3.22;;;1.30;;
49578;SDS011;35483;50.828;3.228;2022-07-01T09:54:44;3.97;;;1.20;;
49578;SDS011;35483;50.828;3.228;2022-07-01T09:57:13;3.47;;;1.02;;
49578;SDS011;35483;50.828;3.228;2022-07-01T09:59:39;3.53;;;1.30;;
49578;SDS011;35483;50.828;3.228;2022-07-01T10:02:10;2.75;;;1.10;;
49578;SDS011;35483;50.828;3.228;2022-07-01T10:04:38;2.67;;;1.10;;
49578;SDS011;35483;50.828;3.228;2022-07-01T10:15:09;3.35;;;1.15;;
49578;SDS011;35483;50.828;3.228;2022-07-01T10:17:41;6.28;;;1.33;;
49578;SDS011;35483;50.828;3.228;2022-07-01T10:20:11;3.67;;;1.05;;
49578;SDS011;35483;50.828;3.228;2022-07-01T10:22:38;1.63;;;1.15;;
49578;SDS011;35483;50.828;3.228;2022-07-01T10:28:21;3.55;;;1.10;;
49578;SDS011;35483;50.828;3.228;2022-07-01T10:33:31;5.30;;;1.38;;
49578;SDS011;35483;50.828;3.228;2022-07-01T10:38:35;3.67;;;1.27;;
49578;SDS011;35483;50.828;3.228;2022-07-01T10:41:24;2.35;;;1.20;;
49578;SDS011;35483;50.828;3.228;2022-07-01T10:43:50;2.75;;;0.98;;
49578;SDS011;35483;50.828;3.228;2022-07-01T10:49:05;1.98;;;1.05;;
49578;SDS011;35483;50.828;3.228;2022-07-01T10:51:45;1.83;;;1.02;;
49578;SDS011;35483;50.828;3.228;2022-07-01T11:04:59;2.65;;;1.50;;
49578;SDS011;35483;50.828;3.228;2022-07-01T11:07:31;3.58;;;1.52;;
49578;SDS011;35483;50.828;3.228;2022-07-01T11:09:58;3.95;;;1.52;;
49578;SDS011;35483;50.828;3.228;2022-07-01T11:12:26;4.15;;;1.67;;
49578;SDS011;35483;50.828;3.228;2022-07-01T11:14:54;4.63;;;1.90;;
49578;SDS011;35483;50.828;3.228;2022-07-01T11:17:27;6.15;;;1.85;;
49578;SDS011;35483;50.828;3.228;2022-07-01T11:19:54;3.08;;;1.60;;
49578;SDS011;35483;50.828;3.228;2022-07-01T11:22:27;3.90;;;1.90;;
49578;SDS011;35483;50.828;3.228;2022-07-01T11:24:58;2.47;;;1.30;;
49578;SDS011;35483;50.828;3.228;2022-07-01T11:27:27;2.97;;;1.35;;
49578;SDS011;35483;50.828;3.228;2022-07-01T11:29:57;2.22;;;1.52;;
49578;SDS011;35483;50.828;3.228;2022-07-01T11:34:51;2.80;;;1.73;;
49578;SDS011;35483;50.828;3.228;2022-07-01T11:37:17;2.47;;;1.50;;
49578;SDS011;35483;50.828;3.228;2022-07-01T11:40:03;2.75;;;1.60;;
49578;SDS011;35483;50.828;3.228;2022-07-01T11:42:33;2.47;;;1.40;;
49578;SDS011;35483;50.828;3.228;2022-07-01T11:44:59;3.05;;;1.52;;
49578;SDS011;35483;50.828;3.228;2022-07-01T11:47:25;4.40;;;1.90;;
49578;SDS011;35483;50.828;3.228;2022-07-01T11:49:52;4.35;;;1.65;;
49578;SDS011;35483;50.828;3.228;2022-07-01T11:52:19;5.50;;;1.58;;
49578;SDS011;35483;50.828;3.228;2022-07-01T11:54:47;2.53;;;1.30;;
49578;SDS011;35483;50.828;3.228;2022-07-01T11:57:15;3.47;;;1.38;;
49578;SDS011;35483;50.828;3.228;2022-07-01T11:59:47;3.22;;;1.05;;
49578;SDS011;35483;50.828;3.228;2022-07-01T12:02:15;3.30;;;1.20;;
49578;SDS011;35483;50.828;3.228;2022-07-01T12:04:42;2.00;;;1.40;;
49578;SDS011;35483;50.828;3.228;2022-07-01T12:07:09;2.90;;;1.48;;
49578;SDS011;35483;50.828;3.228;2022-07-01T12:09:36;1.98;;;1.35;;
49578;SDS011;35483;50.828;3.228;2022-07-01T12:12:02;3.15;;;1.80;;
49578;SDS011;35483;50.828;3.228;2022-07-01T12:14:30;3.67;;;1.30;;
49578;SDS011;35483;50.828;3.228;2022-07-01T12:16:59;2.47;;;1.05;;
49578;SDS011;35483;50.828;3.228;2022-07-01T12:19:37;2.17;;;1.23;;
49578;SDS011;35483;50.828;3.228;2022-07-01T12:22:23;4.15;;;1.30;;
49578;SDS011;35483;50.828;3.228;2022-07-01T12:25:04;2.42;;;1.15;;
49578;SDS011;35483;50.828;3.228;2022-07-01T12:27:34;2.17;;;1.17;;
49578;SDS011;35483;50.828;3.228;2022-07-01T12:30:03;2.95;;;1.25;;
49578;SDS011;35483;50.828;3.228;2022-07-01T12:32:29;3.63;;;1.23;;
49578;SDS011;35483;50.828;3.228;2022-07-01T12:35:00;5.93;;;1.40;;
49578;SDS011;35483;50.828;3.228;2022-07-01T12:37:30;1.88;;;1.20;;
49578;SDS011;35483;50.828;3.228;2022-07-01T12:42:33;2.95;;;1.25;;
49578;SDS011;35483;50.828;3.228;2022-07-01T12:45:00;2.25;;;1.00;;
49578;SDS011;35483;50.828;3.228;2022-07-01T12:52:38;2.72;;;1.20;;
49578;SDS011;35483;50.828;3.228;2022-07-01T12:55:18;1.58;;;1.05;;
49578;SDS011;35483;50.828;3.228;2022-07-01T12:57:55;2.75;;;1.38;;
49578;SDS011;35483;50.828;3.228;2022-07-01T13:00:24;4.50;;;1.17;;
49578;SDS011;35483;50.828;3.228;2022-07-01T13:02:52;4.72;;;1.50;;
49578;SDS011;35483;50.828;3.228;2022-07-01T13:05:20;1.95;;;1.13;;
49578;SDS011;35483;50.828;3.228;2022-07-01T13:07:46;3.40;;;1.20;;
49578;SDS011;35483;50.828;3.228;2022-07-01T13:10:12;4.93;;;1.00;;
49578;SDS011;35483;50.828;3.228;2022-07-01T13:12:39;3.70;;;1.15;;
49578;SDS011;35483;50.828;3.228;2022-07-01T13:15:05;2.33;;;1.23;;
49578;SDS011;35483;50.828;3.228;2022-07-01T13:17:31;3.80;;;1.20;;
49578;SDS011;35483;50.828;3.228;2022-07-01T13:19:57;1.67;;;1.02;;
49578;SDS011;35483;50.828;3.228;2022-07-01T13:22:22;2.08;;;0.85;;
49578;SDS011;35483;50.828;3.228;2022-07-01T13:24:49;2.25;;;1.30;;
49578;SDS011;35483;50.828;3.228;2022-07-01T13:27:15;1.67;;;1.20;;
49578;SDS011;35483;50.828;3.228;2022-07-01T13:29:41;3.90;;;1.20;;
49578;SDS011;35483;50.828;3.228;2022-07-01T13:32:08;3.50;;;1.10;;
49578;SDS011;35483;50.828;3.228;2022-07-01T13:34:34;2.72;;;1.30;;
49578;SDS011;35483;50.828;3.228;2022-07-01T13:37:00;2.72;;;1.13;;
49578;SDS011;35483;50.828;3.228;2022-07-01T13:39:26;2.75;;;1.30;;
49578;SDS011;35483;50.828;3.228;2022-07-01T13:41:52;3.90;;;1.40;;
49578;SDS011;35483;50.828;3.228;2022-07-01T13:44:20;2.60;;;1.20;;
49578;SDS011;35483;50.828;3.228;2022-07-01T13:46:45;3.35;;;1.38;;
49578;SDS011;35483;50.828;3.228;2022-07-01T13:49:11;3.25;;;1.50;;
49578;SDS011;35483;50.828;3.228;2022-07-01T13:51:37;1.55;;;1.33;;
49578;SDS011;35483;50.828;3.228;2022-07-01T13:54:02;3.28;;;1.45;;
49578;SDS011;35483;50.828;3.228;2022-07-01T13:56:28;3.25;;;1.35;;
49578;SDS011;35483;50.828;3.228;2022-07-01T13:58:54;2.97;;;0.90;;
49578;SDS011;35483;50.828;3.228;2022-07-01T14:01:20;1.80;;;1.10;;
49578;SDS011;35483;50.828;3.228;2022-07-01T14:03:50;2.20;;;0.98;;
49578;SDS011;35483;50.828;3.228;2022-07-01T14:06:16;3.25;;;1.55;;
49578;SDS011;35483;50.828;3.228;2022-07-01T14:08:43;4.03;;;1.30;;
49578;SDS011;35483;50.828;3.228;2022-07-01T14:11:09;1.50;;;1.10;;
49578;SDS011;35483;50.828;3.228;2022-07-01T14:13:35;3.58;;;0.90;;
49578;SDS011;35483;50.828;3.228;2022-07-01T14:16:02;3.70;;;1.20;;
49578;SDS011;35483;50.828;3.228;2022-07-01T14:18:30;3.50;;;1.45;;
49578;SDS011;35483;50.828;3.228;2022-07-01T14:20:56;3.45;;;1.30;;
49578;SDS011;35483;50.828;3.228;2022-07-01T14:23:21;3.47;;;0.98;;
49578;SDS011;35483;50.828;3.228;2022-07-01T14:25:47;3.05;;;1.02;;
49578;SDS011;35483;50.828;3.228;2022-07-01T14:28:13;4.13;;;1.33;;
49578;SDS011;35483;50.828;3.228;2022-07-01T14:30:38;3.20;;;1.50;;
49578;SDS011;35483;50.828;3.228;2022-07-01T14:33:04;3.53;;;0.95;;
49578;SDS011;35483;50.828;3.228;2022-07-01T14:35:30;2.67;;;1.13;;
49578;SDS011;35483;50.828;3.228;2022-07-01T14:37:57;2.03;;;1.23;;
49578;SDS011;35483;50.828;3.228;2022-07-01T14:40:23;3.03;;;0.88;;
49578;SDS011;35483;50.828;3.228;2022-07-01T14:42:50;2.72;;;0.90;;
49578;SDS011;35483;50.828;3.228;2022-07-01T14:45:16;2.97;;;1.08;;
49578;SDS011;35483;50.828;3.228;2022-07-01T14:47:42;2.08;;;1.20;;
49578;SDS011;35483;50.828;3.228;2022-07-01T14:50:09;4.53;;;0.98;;
49578;SDS011;35483;50.828;3.228;2022-07-01T14:52:36;2.45;;;1.10;;
49578;SDS011;35483;50.828;3.228;2022-07-01T14:55:02;1.08;;;0.82;;
49578;SDS011;35483;50.828;3.228;2022-07-01T14:57:28;1.83;;;0.70;;
49578;SDS011;35483;50.828;3.228;2022-07-01T14:59:55;1.73;;;0.70;;
49578;SDS011;35483;50.828;3.228;2022-07-01T15:02:22;2.20;;;0.80;;
49578;SDS011;35483;50.828;3.228;2022-07-01T15:04:48;2.85;;;0.93;;
49578;SDS011;35483;50.828;3.228;2022-07-01T15:07:14;1.38;;;0.50;;
49578;SDS011;35483;50.828;3.228;2022-07-01T15:09:40;2.35;;;0.57;;
49578;SDS011;35483;50.828;3.228;2022-07-01T15:12:06;2.15;;;0.90;;
49578;SDS011;35483;50.828;3.228;2022-07-01T15:14:32;1.80;;;0.90;;
49578;SDS011;35483;50.828;3.228;2022-07-01T15:16:58;1.23;;;0.93;;
49578;SDS011;35483;50.828;3.228;2022-07-01T15:19:24;2.75;;;0.82;;
49578;SDS011;35483;50.828;3.228;2022-07-01T15:21:51;2.25;;;0.70;;
49578;SDS011;35483;50.828;3.228;2022-07-01T15:24:21;2.25;;;0.77;;
49578;SDS011;35483;50.828;3.228;2022-07-01T15:26:47;2.60;;;0.70;;
49578;SDS011;35483;50.828;3.228;2022-07-01T15:29:14;2.13;;;1.00;;
49578;SDS011;35483;50.828;3.228;2022-07-01T15:31:40;3.70;;;1.25;;
49578;SDS011;35483;50.828;3.228;2022-07-01T15:34:06;3.00;;;1.10;;